Portada
METAR-TAF:

METAR-TAF

Aeroports :

Chugiak, Alaska, Estats Units d'Amèrica

latitud: 61-25N, longitud: 149-31W, altitud: 29 m

Observació

L'informe es va fer fa 21 minuts, a les 07:10 UTC
Vent 4 kt del Nord-Est
Temperatura -9°C
Humitat 85%
Pressió 1001 hPa
Visibilitat: 3.2 km
Cel ennuvolat a una alçada de 1200 ft
Cel cobert a una alçada de 1900 ft
neu, boirina

METAR: PABV 220710Z AUTO 05004KT 2SM -SN BR BKN012 OVC019 M09/M11 A2956 RMK AO2 P0000 FZRANO

Hora: 22:31 (07:31 UTC)


TAF: manca

Observacions i pronòstics meteorològics de més de 4000 aeroports (METAR i TAF).

Les estacions disponibles són els punts grocs i vermells al mapa.

Posi el ratolí al punt desitjat per veure el nom de l'estació.

Feu clic per veure les observacions i els pronòstics meteorològics.

Per canviar el mapa: feu clic els botons verds amb una creu de color negre per apropar; al botó verd amb un guió per allunyar la imatge; o en les fletxes verdes per a mapes adjacents.


METAR-TAF: